Time;durP1;ratioP1;P1;durP2;ratioP2;P2;SDS_P1;SDS_P2;PMS_P1;PMS_P2;Temp;Humidity;BMP_temperature;BMP_pressure;BME280_temperature;BME280_humidity;BME280_pressure;Samples;Min_cycle;Max_cycle;Signal;HPM_P1;HPM_P2
2022/03/18 00:00:23;;;;;;;11.63;6.70;;;8.10;96.70;;;;;;5006165;28;20264;-34
2022/03/18 00:02:54;;;;;;;10.47;6.67;;;8.10;96.60;;;;;;4972258;28;20248;-34
2022/03/18 00:05:22;;;;;;;11.43;6.40;;;8.00;96.60;;;;;;5005842;28;20201;-34
2022/03/18 00:07:49;;;;;;;10.77;6.10;;;8.00;96.60;;;;;;4991243;28;20194;-34
2022/03/18 00:10:19;;;;;;;13.60;6.70;;;8.00;96.70;;;;;;5000710;28;20337;-39
2022/03/18 00:12:52;;;;;;;12.67;6.63;;;8.00;96.70;;;;;;4992886;28;20216;-39
2022/03/18 00:15:25;;;;;;;14.03;6.97;;;7.90;96.70;;;;;;4996696;28;20298;-39
2022/03/18 00:17:54;;;;;;;13.73;6.47;;;7.90;96.70;;;;;;5001074;28;20225;-39
2022/03/18 00:20:29;;;;;;;11.23;6.30;;;7.90;96.70;;;;;;4985982;28;20617;-39
2022/03/18 00:22:58;;;;;;;12.10;6.37;;;7.80;96.70;;;;;;4990790;28;20730;-39
2022/03/18 00:25:26;;;;;;;13.33;6.53;;;7.80;96.60;;;;;;5007704;28;20313;-39
2022/03/18 00:27:55;;;;;;;12.53;6.60;;;7.80;96.60;;;;;;4977765;28;20273;-39
2022/03/18 00:30:25;;;;;;;11.37;6.30;;;7.80;96.70;;;;;;5003087;28;20673;-39
2022/03/18 00:32:55;;;;;;;11.30;6.53;;;7.70;96.60;;;;;;5007385;28;20288;-39
2022/03/18 00:35:39;;;;;;;12.50;6.40;;;7.70;96.70;;;;;;5006501;28;20319;-39
2022/03/18 00:38:08;;;;;;;10.37;6.30;;;7.70;96.70;;;;;;5007053;28;20281;-37
2022/03/18 00:40:38;;;;;;;10.73;6.33;;;7.60;96.60;;;;;;4995752;28;20293;-37
2022/03/18 00:43:07;;;;;;;16.23;7.03;;;7.60;96.70;;;;;;4999325;28;20273;-32
2022/03/18 00:45:35;;;;;;;12.07;6.90;;;7.60;96.70;;;;;;4989941;28;20221;-32
2022/03/18 00:53:39;;;;;;;12.10;6.33;;;7.50;96.70;;;;;;4988824;28;20231;-34
2022/03/18 00:56:09;;;;;;;11.30;6.23;;;7.40;96.70;;;;;;4996119;28;20198;-34
2022/03/18 00:58:36;;;;;;;10.90;6.50;;;7.40;96.70;;;;;;4992572;28;20557;-34
2022/03/18 01:01:03;;;;;;;12.50;6.67;;;7.40;96.70;;;;;;5001240;28;20221;-32
2022/03/18 01:03:33;;;;;;;11.30;6.60;;;7.40;96.70;;;;;;5001556;28;20550;-32
2022/03/18 01:06:03;;;;;;;9.80;6.37;;;7.30;96.70;;;;;;5009552;28;20201;-32
2022/03/18 01:08:33;;;;;;;10.23;6.50;;;7.30;96.70;;;;;;5009310;28;20263;-34
2022/03/18 01:11:04;;;;;;;9.60;6.07;;;7.30;96.80;;;;;;4993151;28;20322;-34
2022/03/18 01:13:31;;;;;;;10.83;6.33;;;7.30;96.80;;;;;;4999163;28;20288;-34
2022/03/18 01:16:01;;;;;;;14.07;5.90;;;7.30;96.70;;;;;;5005324;28;20202;-34
2022/03/18 01:18:32;;;;;;;10.17;6.10;;;7.20;96.70;;;;;;4997239;28;20219;-34
2022/03/18 01:21:04;;;;;;;14.90;6.37;;;7.20;96.70;;;;;;4993983;28;20856;-34
2022/03/18 01:23:36;;;;;;;13.23;6.00;;;7.20;96.70;;;;;;5006986;28;20244;-34
2022/03/18 01:26:08;;;;;;;10.93;5.60;;;7.20;96.70;;;;;;5004865;28;20260;-35
2022/03/18 01:28:38;;;;;;;12.57;6.20;;;7.20;96.80;;;;;;5005428;28;20542;-35
2022/03/18 01:31:05;;;;;;;10.13;5.53;;;7.10;96.70;;;;;;5003707;28;20650;-34
2022/03/18 01:33:34;;;;;;;14.47;6.83;;;7.10;96.70;;;;;;5008656;28;20700;-34
2022/03/18 01:36:07;;;;;;;10.83;6.50;;;7.10;96.80;;;;;;5004167;28;20284;-34
2022/03/18 01:38:37;;;;;;;13.20;6.30;;;7.00;96.80;;;;;;5008609;28;20221;-35
2022/03/18 01:41:09;;;;;;;10.60;5.67;;;7.00;96.80;;;;;;5002798;28;20208;-34
2022/03/18 01:43:42;;;;;;;10.20;6.17;;;6.90;96.60;;;;;;5005630;28;20189;-34
2022/03/18 01:46:13;;;;;;;12.57;5.93;;;6.90;96.70;;;;;;5000827;28;20217;-34
2022/03/18 01:48:41;;;;;;;10.53;6.30;;;6.90;96.70;;;;;;4994931;28;20209;-34
2022/03/18 01:51:09;;;;;;;14.50;6.60;;;6.80;96.60;;;;;;4991807;28;20300;-34
2022/03/18 01:53:38;;;;;;;15.67;6.20;;;6.80;96.60;;;;;;4989985;28;20681;-35
2022/03/18 01:56:06;;;;;;;9.57;6.20;;;6.80;96.60;;;;;;4989916;28;20252;-32
2022/03/18 01:58:36;;;;;;;13.77;6.33;;;6.80;96.70;;;;;;5007913;28;20694;-32
2022/03/18 02:01:04;;;;;;;11.57;6.80;;;6.70;96.70;;;;;;5001385;28;20289;-32
2022/03/18 02:03:34;;;;;;;13.80;6.47;;;6.70;96.80;;;;;;5007842;28;20218;-32
2022/03/18 02:06:04;;;;;;;13.23;6.33;;;6.70;96.70;;;;;;4986347;28;20379;-32
2022/03/18 02:08:34;;;;;;;10.10;6.30;;;6.60;96.70;;;;;;5004851;28;20206;-33
2022/03/18 02:11:06;;;;;;;13.23;6.73;;;6.60;96.60;;;;;;4999741;28;20210;-32
2022/03/18 02:13:38;;;;;;;8.83;6.20;;;6.60;96.70;;;;;;4995358;28;20217;-32
2022/03/18 02:16:06;;;;;;;12.90;7.23;;;6.50;96.60;;;;;;4973330;28;20194;-32
2022/03/18 02:18:37;;;;;;;9.63;6.33;;;6.50;96.60;;;;;;5007356;28;20739;-33
2022/03/18 02:21:13;;;;;;;11.53;6.23;;;6.50;96.60;;;;;;4986427;28;20680;-33
2022/03/18 02:23:45;;;;;;;13.50;6.57;;;6.50;96.70;;;;;;5007007;28;20616;-32
2022/03/18 02:26:17;;;;;;;14.00;6.13;;;6.50;96.70;;;;;;5001771;28;20208;-32
2022/03/18 02:28:50;;;;;;;12.90;7.23;;;6.50;96.80;;;;;;5005024;28;20247;-32
2022/03/18 02:31:19;;;;;;;10.73;6.93;;;6.50;96.60;;;;;;4988206;28;20287;-33
2022/03/18 02:33:48;;;;;;;10.13;6.40;;;6.50;96.70;;;;;;4971361;28;20202;-33
2022/03/18 02:36:16;;;;;;;12.93;6.17;;;6.40;96.70;;;;;;4970713;28;20240;-33
2022/03/18 02:38:44;;;;;;;11.53;6.60;;;6.40;96.70;;;;;;4987514;28;20198;-37
2022/03/18 02:41:13;;;;;;;11.93;6.63;;;6.40;96.70;;;;;;5002518;28;20221;-37
2022/03/18 02:43:44;;;;;;;12.53;6.77;;;6.40;96.70;;;;;;4983330;28;20198;-37
2022/03/18 02:46:17;;;;;;;11.87;7.00;;;6.30;96.60;;;;;;5005109;28;20209;-37
2022/03/18 02:48:44;;;;;;;10.83;6.37;;;6.30;96.70;;;;;;5007345;28;20684;-37
2022/03/18 02:51:11;;;;;;;12.63;6.53;;;6.30;96.70;;;;;;4983067;28;20232;-37
2022/03/18 02:53:39;;;;;;;13.20;6.63;;;6.30;96.70;;;;;;4991532;28;20236;-37
2022/03/18 02:56:07;;;;;;;10.97;6.00;;;6.20;96.70;;;;;;4999753;28;20209;-32
2022/03/18 02:58:35;;;;;;;11.33;7.47;;;6.20;96.70;;;;;;5007346;28;20660;-33
2022/03/18 03:01:07;;;;;;;11.90;7.13;;;6.20;96.70;;;;;;5004590;28;20731;-36
2022/03/18 03:03:37;;;;;;;10.73;6.50;;;6.10;96.70;;;;;;5004479;28;20229;-37
2022/03/18 03:08:57;;;;;;;9.97;6.37;;;6.10;96.70;;;;;;5004391;28;20289;-37
2022/03/18 03:11:24;;;;;;;11.73;6.23;;;6.10;96.60;;;;;;5003538;28;20255;-37
2022/03/18 03:13:56;;;;;;;11.17;6.73;;;6.00;96.60;;;;;;5006832;28;20224;-37
2022/03/18 03:16:23;;;;;;;11.67;6.73;;;6.00;96.90;;;;;;5002058;28;20755;-37
2022/03/18 03:18:51;;;;;;;13.03;7.10;;;6.00;96.70;;;;;;4987865;28;20198;-37
2022/03/18 03:21:20;;;;;;;12.40;7.23;;;6.00;96.70;;;;;;4996405;28;20622;-37
2022/03/18 03:23:50;;;;;;;13.10;7.17;;;5.90;96.60;;;;;;5001740;28;20194;-37
2022/03/18 03:26:20;;;;;;;13.40;7.23;;;5.90;96.70;;;;;;4986497;28;20205;-37
2022/03/18 03:28:50;;;;;;;11.40;6.50;;;5.90;96.70;;;;;;5007012;28;20313;-37
2022/03/18 03:31:22;;;;;;;10.00;6.63;;;5.80;96.60;;;;;;5000441;28;20213;-37
2022/03/18 03:33:54;;;;;;;13.13;7.13;;;5.80;96.70;;;;;;5002794;28;21113;-37
2022/03/18 03:36:23;;;;;;;13.43;7.23;;;5.80;96.70;;;;;;5006057;28;20201;-37
2022/03/18 03:38:53;;;;;;;12.77;7.53;;;5.80;96.70;;;;;;5010450;28;21039;-37
2022/03/18 03:41:22;;;;;;;12.67;7.40;;;5.70;96.60;;;;;;5007728;28;20201;-37
2022/03/18 03:43:50;;;;;;;12.97;7.60;;;5.70;96.60;;;;;;5007638;28;20206;-37
2022/03/18 03:46:19;;;;;;;11.87;8.07;;;5.80;96.70;;;;;;4998520;28;20211;-37
2022/03/18 03:48:46;;;;;;;14.70;8.27;;;5.80;96.70;;;;;;4973495;28;20210;-37
2022/03/18 03:51:22;;;;;;;15.37;8.83;;;5.80;96.70;;;;;;5004205;28;20212;-37
2022/03/18 03:53:52;;;;;;;17.10;9.33;;;5.80;96.70;;;;;;5010113;28;20243;-37
2022/03/18 03:56:24;;;;;;;14.20;8.37;;;5.90;96.80;;;;;;5010765;28;20228;-37
2022/03/18 03:58:53;;;;;;;14.83;8.57;;;5.90;96.80;;;;;;5007360;28;20210;-37
2022/03/18 04:01:20;;;;;;;12.53;8.00;;;5.90;96.80;;;;;;5009863;28;20213;-37
2022/03/18 04:03:51;;;;;;;13.07;8.20;;;5.90;96.80;;;;;;5003637;28;20226;-38
2022/03/18 04:06:18;;;;;;;15.23;9.23;;;5.80;96.80;;;;;;4973271;28;20226;-37
2022/03/18 04:08:45;;;;;;;14.27;8.33;;;5.80;96.80;;;;;;5003477;28;20220;-38
2022/03/18 04:11:15;;;;;;;13.40;9.13;;;5.80;96.80;;;;;;4989026;28;20208;-38
2022/03/18 04:13:42;;;;;;;13.63;8.47;;;5.70;96.80;;;;;;4989283;28;20731;-38
2022/03/18 04:16:12;;;;;;;14.13;9.90;;;5.70;96.70;;;;;;4996501;28;20212;-38
2022/03/18 04:18:39;;;;;;;20.33;10.03;;;5.70;96.70;;;;;;4989684;28;20222;-38
2022/03/18 04:21:06;;;;;;;14.17;8.67;;;5.70;96.70;;;;;;4997654;28;20720;-38
2022/03/18 04:23:38;;;;;;;16.00;8.93;;;5.70;96.70;;;;;;5009694;28;20277;-37
2022/03/18 04:26:08;;;;;;;15.50;9.40;;;5.70;96.90;;;;;;5005570;28;20261;-37
2022/03/18 04:28:37;;;;;;;16.07;9.27;;;5.60;96.80;;;;;;5010120;28;20200;-38
2022/03/18 04:31:04;;;;;;;17.20;9.40;;;5.60;96.70;;;;;;5007569;28;20577;-37
2022/03/18 04:33:32;;;;;;;15.67;9.00;;;5.60;96.80;;;;;;5008611;28;20217;-37
2022/03/18 04:35:59;;;;;;;18.03;9.90;;;5.60;96.80;;;;;;5006450;28;20198;-38
2022/03/18 04:38:32;;;;;;;14.07;9.13;;;5.50;96.80;;;;;;4997642;28;20313;-38
2022/03/18 04:40:59;;;;;;;14.77;9.30;;;5.50;96.80;;;;;;4979905;28;20212;-38
2022/03/18 04:43:29;;;;;;;16.43;10.00;;;5.50;96.80;;;;;;5006283;28;20311;-38
2022/03/18 04:45:56;;;;;;;15.07;8.70;;;5.40;96.80;;;;;;5010411;28;20197;-37
2022/03/18 04:48:26;;;;;;;16.03;9.37;;;5.40;96.80;;;;;;5027995;28;20205;-33
2022/03/18 04:50:53;;;;;;;15.47;9.90;;;5.30;96.70;;;;;;5012656;28;20312;-33
2022/03/18 04:53:26;;;;;;;16.23;9.67;;;5.30;96.70;;;;;;4971881;28;20293;-33
2022/03/18 04:55:53;;;;;;;13.70;9.47;;;5.20;96.70;;;;;;4989666;28;20210;-32
2022/03/18 04:58:26;;;;;;;17.93;9.80;;;5.20;96.70;;;;;;4973130;28;20712;-32
2022/03/18 05:00:53;;;;;;;13.93;9.77;;;5.20;96.70;;;;;;4990850;28;20559;-33
2022/03/18 05:03:21;;;;;;;16.40;9.43;;;5.10;96.70;;;;;;5004810;28;20228;-32
2022/03/18 05:05:50;;;;;;;15.23;10.17;;;5.10;96.70;;;;;;5003963;28;20231;-33
2022/03/18 05:08:22;;;;;;;17.90;10.27;;;5.00;96.60;;;;;;5008999;28;20217;-32
2022/03/18 05:10:49;;;;;;;15.73;10.30;;;5.00;96.60;;;;;;5008093;28;20201;-34
2022/03/18 05:13:19;;;;;;;18.57;10.40;;;5.00;96.60;;;;;;4990376;28;20647;-32
2022/03/18 05:15:46;;;;;;;16.10;10.00;;;5.00;96.70;;;;;;4994483;28;20283;-32
2022/03/18 05:18:13;;;;;;;16.03;10.03;;;5.00;96.70;;;;;;5008318;28;20209;-32
2022/03/18 05:20:43;;;;;;;18.87;10.03;;;4.90;96.70;;;;;;5008773;28;20206;-32
2022/03/18 05:23:14;;;;;;;16.07;9.33;;;4.90;96.70;;;;;;5008878;28;20252;-32
2022/03/18 05:25:44;;;;;;;15.50;9.83;;;4.90;96.70;;;;;;5007745;28;20241;-32
2022/03/18 05:28:14;;;;;;;20.67;9.60;;;4.90;96.70;;;;;;5006958;28;20470;-32
2022/03/18 05:30:41;;;;;;;18.67;10.10;;;4.80;96.60;;;;;;4987296;28;20260;-33
2022/03/18 05:33:11;;;;;;;15.63;10.17;;;4.80;96.60;;;;;;4998424;28;20698;-32
2022/03/18 05:35:41;;;;;;;18.43;10.40;;;4.70;96.60;;;;;;4998519;28;20237;-38
2022/03/18 05:38:10;;;;;;;18.27;9.83;;;4.80;96.70;;;;;;4989015;28;20237;-37
2022/03/18 05:40:38;;;;;;;17.80;9.83;;;4.70;96.60;;;;;;4997914;28;20212;-37
2022/03/18 05:43:08;;;;;;;14.37;9.87;;;4.70;96.60;;;;;;5003465;28;20218;-37
2022/03/18 05:45:37;;;;;;;16.50;11.00;;;4.70;96.70;;;;;;5003324;28;20618;-37
2022/03/18 05:48:07;;;;;;;16.03;9.60;;;4.70;96.70;;;;;;5004812;28;20260;-37
2022/03/18 05:50:37;;;;;;;16.60;9.63;;;4.70;96.70;;;;;;5004211;28;20230;-38
2022/03/18 05:53:04;;;;;;;15.20;10.20;;;4.60;96.60;;;;;;5008286;28;20198;-38
2022/03/18 05:58:22;;;;;;;13.70;8.70;;;4.60;96.70;;;;;;5000375;28;20206;-37
2022/03/18 06:00:52;;;;;;;14.30;8.07;;;4.60;97.00;;;;;;4990484;28;20235;-38
2022/03/18 06:03:25;;;;;;;12.87;7.77;;;4.50;96.70;;;;;;4996011;28;20709;-37
2022/03/18 06:05:54;;;;;;;11.10;7.30;;;4.50;96.70;;;;;;5007036;28;20278;-38
2022/03/18 06:14:03;;;;;;;14.80;8.50;;;4.50;97.00;;;;;;4983247;28;20748;-38
2022/03/18 06:16:30;;;;;;;12.43;8.63;;;4.50;96.70;;;;;;4990332;28;20836;-37
2022/03/18 06:18:57;;;;;;;15.60;9.07;;;4.50;96.80;;;;;;4992652;28;20677;-37
2022/03/18 06:21:30;;;;;;;15.90;8.57;;;4.50;96.80;;;;;;4988435;28;20644;-37
2022/03/18 06:23:57;;;;;;;11.93;8.13;;;4.50;96.80;;;;;;4993423;28;20230;-37
2022/03/18 06:26:26;;;;;;;13.17;7.70;;;4.50;96.90;;;;;;4996677;28;20218;-37
2022/03/18 06:28:58;;;;;;;10.33;6.80;;;4.50;96.80;;;;;;4998789;28;20581;-38
2022/03/18 06:31:29;;;;;;;13.10;8.30;;;4.50;96.80;;;;;;4993240;28;20258;-37
2022/03/18 06:34:02;;;;;;;13.60;8.60;;;4.50;96.80;;;;;;4990638;28;20237;-37
2022/03/18 06:36:30;;;;;;;14.10;9.00;;;4.60;96.90;;;;;;5008314;28;20261;-38
2022/03/18 06:38:57;;;;;;;14.97;9.43;;;4.60;96.90;;;;;;4999184;28;20221;-38
2022/03/18 06:41:31;;;;;;;16.67;10.57;;;4.60;96.90;;;;;;4996240;28;20359;-34
2022/03/18 06:43:58;;;;;;;14.40;9.67;;;4.60;96.90;;;;;;5007700;28;20941;-33
2022/03/18 06:46:32;;;;;;;17.00;10.30;;;4.60;97.00;;;;;;5002062;28;20210;-32
2022/03/18 06:49:00;;;;;;;17.57;10.13;;;4.70;97.10;;;;;;4991207;28;20190;-33
2022/03/18 06:51:32;;;;;;;16.80;10.57;;;4.70;97.00;;;;;;4995886;28;20212;-32
2022/03/18 06:54:05;;;;;;;18.37;11.10;;;4.70;97.10;;;;;;4993897;28;20744;-33
2022/03/18 06:56:38;;;;;;;19.93;11.10;;;4.70;97.10;;;;;;4960068;28;20260;-32
2022/03/18 06:59:08;;;;;;;18.93;10.27;;;4.70;97.10;;;;;;4994753;28;20210;-32
2022/03/18 07:01:35;;;;;;;18.67;10.90;;;4.70;97.10;;;;;;4994941;28;20805;-32
2022/03/18 07:04:05;;;;;;;20.37;10.43;;;4.80;97.10;;;;;;5002626;28;20624;-33
2022/03/18 07:06:38;;;;;;;20.47;11.30;;;4.80;97.20;;;;;;5000553;28;20206;-34
2022/03/18 07:09:08;;;;;;;16.83;10.47;;;4.90;97.20;;;;;;4977067;28;20591;-32
2022/03/18 07:11:37;;;;;;;20.00;10.40;;;4.90;97.20;;;;;;4991994;28;20233;-33
2022/03/18 07:14:05;;;;;;;17.40;10.10;;;4.90;97.20;;;;;;4993445;28;20615;-32
2022/03/18 07:19:22;;;;;;;15.33;9.70;;;5.00;97.30;;;;;;5004776;28;21009;-37
2022/03/18 07:21:49;;;;;;;22.20;9.40;;;5.10;97.40;;;;;;5005594;28;20217;-38
2022/03/18 07:24:17;;;;;;;17.10;9.63;;;5.10;97.40;;;;;;4995349;28;20226;-38
2022/03/18 07:26:46;;;;;;;17.03;9.30;;;5.20;97.40;;;;;;4998962;28;20214;-37
2022/03/18 07:29:14;;;;;;;18.67;9.50;;;5.20;97.40;;;;;;4993958;28;20244;-38
2022/03/18 07:31:43;;;;;;;14.07;9.40;;;5.30;97.50;;;;;;5004758;28;20208;-37
2022/03/18 07:34:13;;;;;;;20.40;9.00;;;5.40;97.60;;;;;;4990842;28;20221;-38
2022/03/18 07:36:40;;;;;;;17.23;8.43;;;5.40;97.60;;;;;;4999775;28;20294;-38
2022/03/18 07:39:08;;;;;;;13.13;7.63;;;5.50;97.70;;;;;;4987559;28;20236;-38
2022/03/18 07:41:37;;;;;;;16.33;7.73;;;5.60;97.70;;;;;;4998632;28;20237;-37
2022/03/18 07:44:05;;;;;;;16.07;7.00;;;5.70;97.80;;;;;;4991909;28;20605;-37
2022/03/18 07:46:34;;;;;;;15.77;7.40;;;5.80;97.80;;;;;;4997084;28;20649;-37
2022/03/18 07:49:05;;;;;;;14.17;6.97;;;5.90;97.90;;;;;;4988548;28;20641;-38
2022/03/18 07:51:32;;;;;;;14.37;7.70;;;6.00;98.00;;;;;;5008778;28;20301;-37
2022/03/18 07:54:02;;;;;;;14.60;6.93;;;6.10;98.00;;;;;;4980352;28;20247;-37
2022/03/18 07:56:32;;;;;;;15.17;6.60;;;6.20;98.00;;;;;;4990835;28;20606;-38
2022/03/18 07:59:04;;;;;;;12.47;6.23;;;6.30;98.20;;;;;;4986437;28;20224;-37
2022/03/18 08:01:35;;;;;;;19.63;6.37;;;6.30;98.40;;;;;;4999484;28;20793;-37
2022/03/18 08:04:07;;;;;;;14.87;6.07;;;6.50;98.40;;;;;;5004534;28;20224;-37
2022/03/18 08:06:39;;;;;;;12.93;5.70;;;6.60;98.40;;;;;;5004037;28;20217;-37
2022/03/18 08:09:12;;;;;;;12.17;6.57;;;6.70;98.50;;;;;;5009277;28;20206;-37
2022/03/18 08:11:44;;;;;;;16.00;6.60;;;6.80;98.60;;;;;;4990108;28;20209;-37
2022/03/18 08:14:17;;;;;;;13.50;5.97;;;6.90;98.60;;;;;;4990108;28;20205;-37
2022/03/18 08:16:46;;;;;;;11.47;6.07;;;7.00;98.70;;;;;;4994997;28;20206;-37
2022/03/18 08:19:13;;;;;;;13.10;6.40;;;7.10;98.80;;;;;;4991624;28;20198;-37
2022/03/18 08:21:41;;;;;;;18.87;7.90;;;7.20;98.80;;;;;;4989406;28;20212;-38
2022/03/18 08:24:09;;;;;;;16.00;7.80;;;7.30;99.10;;;;;;4986700;28;20221;-37
2022/03/18 08:26:43;;;;;;;13.10;7.13;;;7.40;99.10;;;;;;4999119;28;20561;-37
2022/03/18 08:29:13;;;;;;;12.53;7.30;;;7.50;99.10;;;;;;4989226;28;20328;-37
2022/03/18 08:31:45;;;;;;;16.23;7.30;;;7.70;99.20;;;;;;4997478;28;20571;-38
2022/03/18 08:34:15;;;;;;;15.67;7.33;;;7.80;99.30;;;;;;4998255;28;20213;-37
2022/03/18 08:36:44;;;;;;;12.43;7.87;;;7.90;99.30;;;;;;5008910;28;20218;-38
2022/03/18 08:39:15;;;;;;;18.40;6.90;;;8.00;99.60;;;;;;5006384;28;20375;-37
2022/03/18 08:41:47;;;;;;;13.40;5.87;;;8.10;99.40;;;;;;4997794;28;20303;-37
2022/03/18 08:44:20;;;;;;;9.80;5.30;;;8.10;99.40;;;;;;4991203;28;20571;-38
2022/03/18 08:46:49;;;;;;;11.33;4.87;;;8.20;99.40;;;;;;4983938;28;20252;-38
2022/03/18 08:49:17;;;;;;;10.73;5.30;;;8.30;99.50;;;;;;4996105;28;20211;-37
2022/03/18 08:51:47;;;;;;;9.47;4.80;;;8.40;99.50;;;;;;4999260;28;20291;-39
2022/03/18 08:54:21;;;;;;;9.17;4.60;;;8.60;99.60;;;;;;5002244;28;20719;-37
2022/03/18 08:56:49;;;;;;;8.30;4.57;;;8.70;99.70;;;;;;4990144;28;20301;-37
2022/03/18 08:59:20;;;;;;;15.00;5.00;;;8.70;99.70;;;;;;4995640;28;20748;-37
2022/03/18 09:01:50;;;;;;;10.33;4.37;;;8.80;99.70;;;;;;4998126;28;20215;-37
2022/03/18 09:04:24;;;;;;;10.27;4.40;;;8.90;99.80;;;;;;4992678;28;20218;-37
2022/03/18 09:06:51;;;;;;;15.53;5.00;;;9.00;99.80;;;;;;4999252;28;20327;-37
2022/03/18 09:09:20;;;;;;;10.20;4.47;;;9.10;99.90;;;;;;5005178;28;20237;-37
2022/03/18 09:11:51;;;;;;;10.87;4.43;;;9.10;99.80;;;;;;4977133;28;21091;-37
2022/03/18 09:14:21;;;;;;;12.03;4.33;;;9.20;99.80;;;;;;5002276;28;20585;-37
2022/03/18 09:16:49;;;;;;;7.60;4.00;;;9.30;99.80;;;;;;4995822;28;20206;-37
2022/03/18 09:19:23;;;;;;;13.13;4.30;;;9.40;99.90;;;;;;5007063;28;20202;-37
2022/03/18 09:21:54;;;;;;;9.80;4.37;;;9.40;99.80;;;;;;5008524;28;20256;-37
2022/03/18 09:24:21;;;;;;;10.10;4.03;;;9.50;99.80;;;;;;5007458;28;20222;-37
2022/03/18 09:26:51;;;;;;;9.50;4.23;;;9.60;99.90;;;;;;5004777;28;20220;-37
2022/03/18 09:29:24;;;;;;;9.67;3.67;;;9.60;99.90;;;;;;4990445;28;20254;-37
2022/03/18 09:31:52;;;;;;;6.20;3.00;;;9.70;99.90;;;;;;4991959;28;20206;-37
2022/03/18 09:34:24;;;;;;;6.93;2.90;;;9.80;99.80;;;;;;4999292;28;20652;-37
2022/03/18 09:36:53;;;;;;;7.17;2.60;;;9.80;99.70;;;;;;4999140;28;21096;-37
2022/03/18 09:39:27;;;;;;;7.87;2.80;;;9.80;99.40;;;;;;4997300;28;20230;-37
2022/03/18 09:41:59;;;;;;;5.70;2.80;;;9.90;99.40;;;;;;4986943;28;20202;-37
2022/03/18 09:44:36;;;;;;;4.97;2.40;;;9.90;99.20;;;;;;5003841;28;20224;-37
2022/03/18 09:47:08;;;;;;;3.83;2.50;;;10.00;99.00;;;;;;4992991;28;20209;-37
2022/03/18 09:49:38;;;;;;;6.83;2.50;;;10.10;99.20;;;;;;4992882;28;20558;-37
2022/03/18 09:52:10;;;;;;;5.93;2.50;;;10.10;98.80;;;;;;4983646;28;20205;-37
2022/03/18 09:54:37;;;;;;;3.63;2.10;;;10.20;99.10;;;;;;5002320;28;20230;-37
2022/03/18 09:57:07;;;;;;;6.50;2.17;;;10.30;98.80;;;;;;4992577;28;20198;-37
2022/03/18 09:59:40;;;;;;;4.67;2.10;;;10.40;99.00;;;;;;5007921;28;20324;-37
2022/03/18 10:02:33;;;;;;;4.33;2.70;;;10.50;99.20;;;;;;4990854;28;20221;-37
2022/03/18 10:05:13;;;;;;;7.37;2.77;;;10.60;99.20;;;;;;4991167;28;20261;-33
2022/03/18 10:07:54;;;;;;;6.03;2.90;;;10.70;99.40;;;;;;4987879;28;20201;-33
2022/03/18 10:10:27;;;;;;;8.67;3.13;;;10.80;99.40;;;;;;4987427;28;20243;-32
2022/03/18 10:13:01;;;;;;;9.07;3.20;;;10.80;99.10;;;;;;4999958;28;20590;-33
2022/03/18 10:15:30;;;;;;;8.40;3.17;;;10.90;99.10;;;;;;4997332;28;20213;-33
2022/03/18 10:18:01;;;;;;;5.97;2.70;;;10.90;98.90;;;;;;4995613;28;20271;-32
2022/03/18 10:20:35;;;;;;;5.43;2.60;;;11.00;99.10;;;;;;4998686;28;20715;-33
2022/03/18 10:23:22;;;;;;;6.70;2.17;;;11.10;99.10;;;;;;5001863;28;20221;-32
2022/03/18 10:25:59;;;;;;;6.00;2.60;;;11.20;99.30;;;;;;4992121;28;20205;-33
2022/03/18 10:28:40;;;;;;;7.17;2.70;;;11.20;99.20;;;;;;4998896;28;20220;-32
2022/03/18 10:31:22;;;;;;;5.43;2.40;;;11.30;99.30;;;;;;5007600;28;20217;-33
2022/03/18 10:37:04;;;;;;;6.70;2.93;;;11.50;98.90;;;;;;4993523;28;20255;-32
2022/03/18 10:39:39;;;;;;;7.40;2.10;;;11.50;99.00;;;;;;4991055;28;20206;-32
2022/03/18 10:42:15;;;;;;;10.10;2.70;;;11.60;99.40;;;;;;4992762;28;20549;-32
2022/03/18 10:44:59;;;;;;;5.33;1.67;;;11.70;99.30;;;;;;4978802;28;20232;-33
2022/03/18 10:47:26;;;;;;;10.00;2.60;;;11.80;99.50;;;;;;4997898;28;20594;-33
2022/03/18 10:50:11;;;;;;;8.50;2.47;;;11.80;99.00;;;;;;5002558;28;20706;-33
2022/03/18 10:52:48;;;;;;;8.33;2.63;;;11.90;98.20;;;;;;4996819;28;20682;-34
2022/03/18 10:55:22;;;;;;;9.63;2.30;;;11.90;98.50;;;;;;4996897;28;20331;-32
2022/03/18 10:57:53;;;;;;;4.77;2.17;;;11.90;98.60;;;;;;4997899;28;20702;-37
2022/03/18 11:00:23;;;;;;;5.53;1.80;;;12.00;98.60;;;;;;4988671;28;20336;-38
2022/03/18 11:02:58;;;;;;;7.50;2.17;;;12.10;98.70;;;;;;4996734;28;20658;-37
2022/03/18 11:05:34;;;;;;;4.93;2.03;;;12.20;99.10;;;;;;5014555;28;20255;-38
2022/03/18 11:08:07;;;;;;;3.00;1.50;;;12.30;99.40;;;;;;5009660;28;20783;-37
2022/03/18 11:13:35;;;;;;;2.47;1.70;;;12.40;99.40;;;;;;4996420;28;20208;-37
2022/03/18 11:16:05;;;;;;;7.43;1.80;;;12.50;98.60;;;;;;4996246;28;20305;-37
2022/03/18 11:18:35;;;;;;;5.33;2.07;;;12.50;98.80;;;;;;5001033;28;20673;-37
2022/03/18 11:21:06;;;;;;;3.87;1.87;;;12.50;98.20;;;;;;5004532;28;20294;-36
2022/03/18 11:23:38;;;;;;;3.77;1.70;;;12.60;98.60;;;;;;5021316;28;20198;-37
2022/03/18 11:26:09;;;;;;;5.33;1.70;;;12.60;98.70;;;;;;5017883;28;20241;-36
2022/03/18 11:28:37;;;;;;;6.97;2.30;;;12.70;98.60;;;;;;4995895;28;20294;-37
2022/03/18 11:31:09;;;;;;;8.37;2.40;;;12.70;99.10;;;;;;4991182;28;20210;-37
2022/03/18 11:33:39;;;;;;;7.10;2.37;;;12.80;98.70;;;;;;4995265;28;20224;-38
2022/03/18 11:36:08;;;;;;;5.40;2.37;;;12.80;98.40;;;;;;5003031;28;20214;-37
2022/03/18 11:38:48;;;;;;;4.07;1.90;;;12.90;98.90;;;;;;5000979;28;20284;-38
2022/03/18 11:41:19;;;;;;;5.53;2.00;;;13.00;97.70;;;;;;4996228;28;20213;-37
2022/03/18 11:43:46;;;;;;;3.47;2.00;;;13.00;98.90;;;;;;5005119;28;20198;-37
2022/03/18 11:46:13;;;;;;;5.93;1.97;;;13.10;98.50;;;;;;5000254;28;20213;-37
2022/03/18 11:48:41;;;;;;;4.17;1.60;;;13.10;98.40;;;;;;4991019;28;20209;-37
2022/03/18 11:51:28;;;;;;;7.50;2.30;;;13.20;98.30;;;;;;5001753;28;20747;-37
2022/03/18 11:54:10;;;;;;;5.63;2.30;;;13.20;97.90;;;;;;4999705;28;20260;-37
2022/03/18 11:56:50;;;;;;;4.73;2.07;;;13.20;98.50;;;;;;5002722;28;20194;-38
2022/03/18 11:59:29;;;;;;;5.63;2.67;;;13.30;98.80;;;;;;5009274;28;20226;-37
2022/03/18 12:01:56;;;;;;;5.83;2.00;;;13.40;98.30;;;;;;5008650;28;20206;-38
2022/03/18 12:04:33;;;;;;;6.37;2.33;;;13.40;98.50;;;;;;5006718;28;20296;-37
2022/03/18 12:07:10;;;;;;;4.97;2.20;;;13.40;98.30;;;;;;4989813;28;20202;-38
2022/03/18 12:10:00;;;;;;;4.20;1.90;;;13.50;98.40;;;;;;4989572;28;20297;-38
2022/03/18 12:12:42;;;;;;;6.60;2.43;;;13.50;98.70;;;;;;4989203;28;20198;-37
2022/03/18 12:15:17;;;;;;;3.70;2.20;;;13.60;98.70;;;;;;4994068;28;20241;-37
2022/03/18 12:17:46;;;;;;;5.80;1.80;;;13.70;98.10;;;;;;4997627;28;20210;-38
2022/03/18 12:20:18;;;;;;;6.03;2.00;;;13.70;98.60;;;;;;4999648;28;20263;-38
2022/03/18 12:22:47;;;;;;;4.57;2.27;;;13.70;98.40;;;;;;5020520;28;20572;-38
2022/03/18 12:25:17;;;;;;;5.10;2.10;;;13.70;98.50;;;;;;4998449;28;20225;-38
2022/03/18 12:27:44;;;;;;;5.23;1.93;;;13.80;98.90;;;;;;5004131;28;20315;-38
2022/03/18 12:30:17;;;;;;;4.87;1.97;;;13.80;98.90;;;;;;5006503;28;20193;-38
2022/03/18 12:32:52;;;;;;;10.23;1.97;;;13.90;98.70;;;;;;4993013;28;20202;-33
2022/03/18 12:35:26;;;;;;;4.27;2.53;;;13.90;99.20;;;;;;5001089;28;20198;-33
2022/03/18 12:38:09;;;;;;;7.60;2.33;;;14.00;97.90;;;;;;5022058;28;20304;-33
2022/03/18 12:40:40;;;;;;;8.20;2.17;;;14.00;98.80;;;;;;5006101;28;20710;-37
2022/03/18 12:43:10;;;;;;;3.77;1.80;;;14.00;98.00;;;;;;5021382;28;20233;-37
2022/03/18 12:45:39;;;;;;;2.73;1.67;;;14.00;97.90;;;;;;4999458;28;20264;-37
2022/03/18 12:48:08;;;;;;;3.00;1.53;;;14.00;98.40;;;;;;4992180;28;20208;-36
2022/03/18 12:50:47;;;;;;;7.37;1.93;;;14.10;97.80;;;;;;4989867;28;20213;-38
2022/03/18 12:53:16;;;;;;;4.17;1.90;;;14.10;96.40;;;;;;4993248;28;20716;-37
2022/03/18 12:55:45;;;;;;;6.33;2.07;;;14.10;98.00;;;;;;4998792;28;20214;-37
2022/03/18 12:58:13;;;;;;;5.40;1.60;;;14.20;98.60;;;;;;5007631;28;20202;-37
2022/03/18 13:00:46;;;;;;;4.40;1.70;;;14.30;97.90;;;;;;5004028;28;20209;-36
2022/03/18 13:03:19;;;;;;;6.37;1.93;;;14.30;97.40;;;;;;4990243;28;20210;-38
2022/03/18 13:05:52;;;;;;;4.40;1.83;;;14.30;97.30;;;;;;5015481;28;20242;-37
2022/03/18 13:08:29;;;;;;;5.70;2.10;;;14.30;97.20;;;;;;5017146;28;20202;-37
2022/03/18 13:10:58;;;;;;;6.77;2.20;;;14.40;96.90;;;;;;5002855;28;20228;-38
2022/03/18 13:13:27;;;;;;;7.22;1.92;;;14.40;97.10;;;;;;4987978;28;20307;-38
2022/03/18 13:16:02;;;;;;;4.30;1.63;;;14.50;97.30;;;;;;5000508;28;20246;-38
2022/03/18 13:18:38;;;;;;;5.37;1.90;;;14.50;97.10;;;;;;4987944;28;20344;-38
2022/03/18 13:21:09;;;;;;;4.80;2.15;;;14.50;97.80;;;;;;5006552;28;20351;-37
2022/03/18 13:23:42;;;;;;;4.13;1.90;;;14.60;96.80;;;;;;4999165;28;20231;-37
2022/03/18 13:26:16;;;;;;;5.87;1.80;;;14.70;97.50;;;;;;4991212;28;20325;-37
2022/03/18 13:28:50;;;;;;;4.33;1.60;;;14.70;97.70;;;;;;4996463;28;20194;-37